createdAt,value
2023-03-29T00:00:04.795Z,980.20
2023-03-29T00:01:04.778Z,980.28
2023-03-29T00:02:04.850Z,980.32
2023-03-29T00:03:04.924Z,980.33
2023-03-29T00:04:04.931Z,980.29
2023-03-29T00:05:04.742Z,980.31
2023-03-29T00:06:04.711Z,980.27
2023-03-29T00:07:04.999Z,980.20
2023-03-29T00:08:04.847Z,980.19
2023-03-29T00:09:04.666Z,980.18
2023-03-29T00:10:04.677Z,980.24
2023-03-29T00:11:04.890Z,980.21
2023-03-29T00:12:04.632Z,980.17
2023-03-29T00:13:04.612Z,980.15
2023-03-29T00:14:04.914Z,980.23
2023-03-29T00:15:04.582Z,980.23
2023-03-29T00:16:04.573Z,980.24
2023-03-29T00:17:04.631Z,980.24
2023-03-29T00:18:04.576Z,980.25
2023-03-29T00:19:04.533Z,980.24
2023-03-29T00:20:04.527Z,980.23
2023-03-29T00:21:04.739Z,980.27
2023-03-29T00:22:04.485Z,980.19
2023-03-29T00:23:04.485Z,980.17
2023-03-29T00:24:04.453Z,980.23
2023-03-29T00:25:04.468Z,980.19
2023-03-29T00:26:07.729Z,980.21
2023-03-29T00:27:04.422Z,980.14
2023-03-29T00:28:04.407Z,980.14
2023-03-29T00:29:04.390Z,980.09
2023-03-29T00:30:04.381Z,980.12
2023-03-29T00:31:04.729Z,980.11
2023-03-29T00:32:04.350Z,980.07
2023-03-29T00:33:04.370Z,980.14
2023-03-29T00:34:04.344Z,980.11
2023-03-29T00:35:04.309Z,980.05
2023-03-29T00:36:04.381Z,980.01
2023-03-29T00:37:04.363Z,979.98
2023-03-29T00:38:04.365Z,980.05
2023-03-29T00:39:04.404Z,980.04
2023-03-29T00:40:04.440Z,980.10
2023-03-29T00:41:04.567Z,980.01
2023-03-29T00:42:04.614Z,979.99
2023-03-29T00:43:04.201Z,979.97
2023-03-29T00:44:04.190Z,980.00
2023-03-29T00:45:04.219Z,979.88
2023-03-29T00:46:04.173Z,979.83
2023-03-29T00:47:04.147Z,979.79
2023-03-29T00:48:04.158Z,979.79
2023-03-29T00:49:04.109Z,979.87
2023-03-29T00:50:04.127Z,979.84
2023-03-29T00:51:04.442Z,979.81
2023-03-29T00:52:04.076Z,979.79
2023-03-29T00:53:04.056Z,979.85
2023-03-29T00:54:04.049Z,979.82
2023-03-29T00:55:04.028Z,979.83
2023-03-29T00:56:04.024Z,979.85
2023-03-29T00:57:04.081Z,979.86
2023-03-29T00:58:03.993Z,979.77
2023-03-29T00:59:03.975Z,979.78
2023-03-29T01:00:04.018Z,979.83
2023-03-29T01:01:04.244Z,979.78
2023-03-29T01:02:04.056Z,979.81
2023-03-29T01:03:04.327Z,979.85
2023-03-29T01:04:04.020Z,979.74
2023-03-29T01:05:03.930Z,979.74
2023-03-29T01:06:03.938Z,979.76
2023-03-29T01:07:03.920Z,979.75
2023-03-29T01:08:03.867Z,979.76
2023-03-29T01:09:03.839Z,979.75
2023-03-29T01:10:03.842Z,979.70
2023-03-29T01:11:04.040Z,979.65
2023-03-29T01:12:03.793Z,979.69
2023-03-29T01:13:03.808Z,979.64
2023-03-29T01:14:03.785Z,979.66
2023-03-29T01:15:04.216Z,979.67
2023-03-29T01:16:03.973Z,979.74
2023-03-29T01:17:03.746Z,979.70
2023-03-29T01:18:03.757Z,979.64
2023-03-29T01:19:03.707Z,979.73
2023-03-29T01:20:03.695Z,979.72
2023-03-29T01:21:03.795Z,979.82
2023-03-29T01:22:03.696Z,979.79
2023-03-29T01:23:03.647Z,979.76
2023-03-29T01:24:03.638Z,979.80
2023-03-29T01:25:03.619Z,979.80
2023-03-29T01:26:03.613Z,979.79
2023-03-29T01:27:03.599Z,979.79
2023-03-29T01:28:03.840Z,979.82
2023-03-29T01:29:03.562Z,979.83
2023-03-29T01:30:03.560Z,979.74
2023-03-29T01:31:03.765Z,979.72
2023-03-29T01:32:03.660Z,979.64
2023-03-29T01:33:03.561Z,979.62
2023-03-29T01:34:03.496Z,979.56
2023-03-29T01:35:03.643Z,979.59
2023-03-29T01:36:03.567Z,979.60
2023-03-29T01:37:03.446Z,979.67
2023-03-29T01:38:03.469Z,979.65
2023-03-29T01:39:03.432Z,979.70
2023-03-29T01:40:03.418Z,979.68
2023-03-29T01:41:03.697Z,979.67
2023-03-29T01:42:03.387Z,979.61
2023-03-29T01:43:03.369Z,979.69
2023-03-29T01:44:03.370Z,979.66
2023-03-29T01:45:03.362Z,979.72
2023-03-29T01:46:03.411Z,979.71
2023-03-29T01:47:03.309Z,979.73
2023-03-29T01:48:03.336Z,979.63
2023-03-29T01:49:03.286Z,979.63
2023-03-29T01:50:03.274Z,979.60
2023-03-29T01:51:03.461Z,979.51
2023-03-29T01:52:03.243Z,979.51
2023-03-29T01:53:03.233Z,979.47
2023-03-29T01:54:03.237Z,979.47
2023-03-29T01:55:03.240Z,979.42
2023-03-29T01:56:03.187Z,979.51
2023-03-29T01:57:03.213Z,979.52
2023-03-29T01:58:03.164Z,979.47
2023-03-29T01:59:03.149Z,979.47
2023-03-29T02:00:03.161Z,979.39
2023-03-29T02:01:03.440Z,979.42
2023-03-29T02:02:03.108Z,979.40
2023-03-29T02:03:03.224Z,979.43
2023-03-29T02:04:03.087Z,979.36
2023-03-29T02:05:03.098Z,979.41
2023-03-29T02:06:03.057Z,979.41
2023-03-29T02:07:03.030Z,979.33
2023-03-29T02:08:03.019Z,979.39
2023-03-29T02:09:03.011Z,979.47
2023-03-29T02:10:03.013Z,979.46
2023-03-29T02:11:03.168Z,979.49
2023-03-29T02:12:02.966Z,979.47
2023-03-29T02:13:02.953Z,979.45
2023-03-29T02:14:02.939Z,979.45
2023-03-29T02:15:02.937Z,979.38
2023-03-29T02:16:02.997Z,979.34
2023-03-29T02:17:02.891Z,979.36
2023-03-29T02:18:02.917Z,979.33
2023-03-29T02:19:02.873Z,979.31
2023-03-29T02:20:02.851Z,979.25
2023-03-29T02:21:03.071Z,979.32
2023-03-29T02:22:02.830Z,979.24
2023-03-29T02:23:02.812Z,979.25
2023-03-29T02:24:02.802Z,979.25
2023-03-29T02:25:02.784Z,979.19
2023-03-29T02:26:02.799Z,979.16
2023-03-29T02:27:02.759Z,979.18
2023-03-29T02:28:02.751Z,979.11
2023-03-29T02:29:02.731Z,979.16
2023-03-29T02:30:02.733Z,979.13
2023-03-29T02:31:02.967Z,979.14
2023-03-29T02:32:02.697Z,979.15
2023-03-29T02:33:02.718Z,979.17
2023-03-29T02:34:02.664Z,979.15
2023-03-29T02:35:02.649Z,979.15
2023-03-29T02:36:02.692Z,979.09
2023-03-29T02:37:02.618Z,978.98
2023-03-29T02:38:02.609Z,978.99
2023-03-29T02:39:02.594Z,978.94
2023-03-29T02:40:02.577Z,978.92
2023-03-29T02:41:02.838Z,978.91
2023-03-29T02:42:02.567Z,978.82
2023-03-29T02:43:02.544Z,978.81
2023-03-29T02:44:02.717Z,978.84
2023-03-29T02:45:02.510Z,978.83
2023-03-29T02:46:02.496Z,978.80
2023-03-29T02:47:02.554Z,978.69
2023-03-29T02:48:02.600Z,978.66
2023-03-29T02:49:02.457Z,978.65
2023-03-29T02:50:02.451Z,978.64
2023-03-29T02:51:02.731Z,978.66
2023-03-29T02:52:02.412Z,978.63
2023-03-29T02:53:02.397Z,978.69
2023-03-29T02:54:02.384Z,978.72
2023-03-29T02:55:02.381Z,978.68
2023-03-29T02:56:02.413Z,978.64
2023-03-29T02:57:02.414Z,978.59
2023-03-29T02:58:02.360Z,978.60
2023-03-29T02:59:02.334Z,978.58
2023-03-29T03:00:02.306Z,978.58
2023-03-29T03:01:02.592Z,978.54
2023-03-29T03:02:02.320Z,978.59
2023-03-29T03:03:02.450Z,978.56
2023-03-29T03:04:02.316Z,978.50
2023-03-29T03:05:02.235Z,978.54
2023-03-29T03:06:02.229Z,978.52
2023-03-29T03:07:02.212Z,978.52
2023-03-29T03:08:02.198Z,978.47
2023-03-29T03:09:02.188Z,978.44
2023-03-29T03:10:02.179Z,978.52
2023-03-29T03:11:02.404Z,978.43
2023-03-29T03:12:02.141Z,978.40
2023-03-29T03:13:02.156Z,978.31
2023-03-29T03:14:02.149Z,978.40
2023-03-29T03:15:02.105Z,978.40
2023-03-29T03:16:02.111Z,978.43
2023-03-29T03:17:04.597Z,978.46
2023-03-29T03:18:02.136Z,978.53
2023-03-29T03:19:02.046Z,978.42
2023-03-29T03:20:02.043Z,978.43
2023-03-29T03:21:02.505Z,978.56
2023-03-29T03:22:01.997Z,978.51
2023-03-29T03:23:01.984Z,978.50
2023-03-29T03:24:01.975Z,978.56
2023-03-29T03:25:01.963Z,978.46
2023-03-29T03:26:01.949Z,978.57
2023-03-29T03:27:01.954Z,978.52
2023-03-29T03:28:02.058Z,978.63
2023-03-29T03:29:01.917Z,978.67
2023-03-29T03:30:01.924Z,978.61
2023-03-29T03:31:02.176Z,978.54
2023-03-29T03:32:01.895Z,978.55
2023-03-29T03:33:01.899Z,978.55
2023-03-29T03:34:01.856Z,978.53
2023-03-29T03:35:01.816Z,978.56
2023-03-29T03:36:01.838Z,978.61
2023-03-29T03:37:01.945Z,978.56
2023-03-29T03:38:01.797Z,978.59
2023-03-29T03:39:01.776Z,978.58
2023-03-29T03:40:01.804Z,978.53
2023-03-29T03:41:02.009Z,978.50
2023-03-29T03:42:01.716Z,978.45
2023-03-29T03:43:01.730Z,978.39
2023-03-29T03:44:01.712Z,978.46
2023-03-29T03:45:01.701Z,978.51
2023-03-29T03:46:01.810Z,978.48
2023-03-29T03:47:01.651Z,978.45
2023-03-29T03:48:01.698Z,978.48
2023-03-29T03:49:01.920Z,978.49
2023-03-29T03:50:01.663Z,978.45
2023-03-29T03:51:01.853Z,978.44
2023-03-29T03:52:01.578Z,978.45
2023-03-29T03:53:01.565Z,978.45
2023-03-29T03:54:01.543Z,978.43
2023-03-29T03:55:01.533Z,978.39
2023-03-29T03:56:01.525Z,978.37
2023-03-29T03:57:01.545Z,978.40
2023-03-29T03:58:01.504Z,978.33
2023-03-29T03:59:01.476Z,978.30
2023-03-29T04:00:01.489Z,978.25
2023-03-29T04:01:01.749Z,978.26
2023-03-29T04:02:01.708Z,978.23
2023-03-29T04:03:01.645Z,978.27
2023-03-29T04:04:01.753Z,978.28
2023-03-29T04:05:01.406Z,978.33
2023-03-29T04:06:01.384Z,978.36
2023-03-29T04:07:01.376Z,978.36
2023-03-29T04:08:01.355Z,978.38
2023-03-29T04:09:01.353Z,978.41
2023-03-29T04:10:01.324Z,978.34
2023-03-29T04:11:01.634Z,978.35
2023-03-29T04:12:01.311Z,978.31
2023-03-29T04:13:01.287Z,978.36
2023-03-29T04:14:01.279Z,978.31
2023-03-29T04:15:01.306Z,978.33
2023-03-29T04:16:01.982Z,978.35
2023-03-29T04:17:01.246Z,978.44
2023-03-29T04:18:01.380Z,978.47
2023-03-29T04:19:01.265Z,978.46
2023-03-29T04:20:01.187Z,978.45
2023-03-29T04:21:01.513Z,978.45
2023-03-29T04:22:01.714Z,978.44
2023-03-29T04:23:01.169Z,978.41
2023-03-29T04:24:01.137Z,978.49
2023-03-29T04:25:01.130Z,978.40
2023-03-29T04:26:01.109Z,978.37
2023-03-29T04:27:01.296Z,978.42
2023-03-29T04:28:01.092Z,978.47
2023-03-29T04:29:01.070Z,978.54
2023-03-29T04:30:01.059Z,978.47
2023-03-29T04:31:01.404Z,978.48
2023-03-29T04:32:01.674Z,978.54
2023-03-29T04:33:01.098Z,978.57
2023-03-29T04:34:01.019Z,978.57
2023-03-29T04:35:00.993Z,978.55
2023-03-29T04:36:01.006Z,978.42
2023-03-29T04:37:00.957Z,978.45
2023-03-29T04:38:00.955Z,978.44
2023-03-29T04:39:00.929Z,978.40
2023-03-29T04:40:00.920Z,978.35
2023-03-29T04:41:01.320Z,978.39
2023-03-29T04:42:00.883Z,978.37
2023-03-29T04:43:01.011Z,978.42
2023-03-29T04:44:00.856Z,978.40
2023-03-29T04:45:00.987Z,978.40
2023-03-29T04:46:01.141Z,978.42
2023-03-29T04:47:00.819Z,978.44
2023-03-29T04:48:00.968Z,978.40
2023-03-29T04:49:00.785Z,978.35
2023-03-29T04:50:00.797Z,978.37
2023-03-29T04:51:01.095Z,978.42
2023-03-29T04:52:00.744Z,978.39
2023-03-29T04:53:00.733Z,978.39
2023-03-29T04:54:00.738Z,978.32
2023-03-29T04:55:00.731Z,978.40
2023-03-29T04:56:00.706Z,978.44
2023-03-29T04:57:00.696Z,978.42
2023-03-29T04:58:00.681Z,978.45
2023-03-29T04:59:00.659Z,978.38
2023-03-29T05:00:00.640Z,978.40
2023-03-29T05:01:00.696Z,978.43
2023-03-29T05:02:00.643Z,978.41
2023-03-29T05:03:00.690Z,978.36
2023-03-29T05:04:00.590Z,978.41
2023-03-29T05:05:00.569Z,978.39
2023-03-29T05:06:00.580Z,978.44
2023-03-29T05:07:00.589Z,978.45
2023-03-29T05:08:00.527Z,978.43
2023-03-29T05:09:00.510Z,978.49
2023-03-29T05:10:00.518Z,978.49
2023-03-29T05:11:00.789Z,978.47
2023-03-29T05:12:00.474Z,978.41
2023-03-29T05:13:00.463Z,978.47
2023-03-29T05:14:00.444Z,978.59
2023-03-29T05:15:00.435Z,978.56
2023-03-29T05:16:00.502Z,978.52
2023-03-29T05:17:00.395Z,978.54
2023-03-29T05:18:00.521Z,978.46
2023-03-29T05:19:00.375Z,978.50
2023-03-29T05:20:00.365Z,978.49
2023-03-29T05:21:00.601Z,978.50
2023-03-29T05:22:00.362Z,978.51
2023-03-29T05:23:00.336Z,978.53
2023-03-29T05:24:00.309Z,978.47
2023-03-29T05:25:00.293Z,978.49
2023-03-29T05:26:00.294Z,978.55
2023-03-29T05:27:00.272Z,978.51
2023-03-29T05:28:00.252Z,978.57
2023-03-29T05:29:00.236Z,978.59
2023-03-29T05:30:00.518Z,978.54
2023-03-29T05:31:00.490Z,978.57
2023-03-29T05:32:00.237Z,978.55
2023-03-29T05:33:00.195Z,978.53
2023-03-29T05:34:00.180Z,978.53
2023-03-29T05:35:00.163Z,978.48
2023-03-29T05:36:00.192Z,978.46
2023-03-29T05:37:00.141Z,978.50
2023-03-29T05:38:00.149Z,978.46
2023-03-29T05:39:00.096Z,978.45
2023-03-29T05:40:06.190Z,978.43
2023-03-29T05:41:01.328Z,978.44
2023-03-29T05:42:00.107Z,978.49
2023-03-29T05:43:00.050Z,978.40
2023-03-29T05:44:00.028Z,978.44
2023-03-29T05:45:00.031Z,978.39
2023-03-29T05:46:00.009Z,978.39
2023-03-29T05:46:59.992Z,978.52
2023-03-29T05:48:00.007Z,978.48
2023-03-29T05:48:59.972Z,978.46
2023-03-29T05:50:00.043Z,978.40
2023-03-29T05:51:00.032Z,978.45
2023-03-29T05:51:59.920Z,978.41
2023-03-29T05:52:59.905Z,978.45
2023-03-29T05:53:59.912Z,978.54
2023-03-29T05:54:59.874Z,978.54
2023-03-29T05:55:59.861Z,978.56
2023-03-29T05:56:59.873Z,978.65
2023-03-29T05:57:59.835Z,978.63
2023-03-29T05:58:59.827Z,978.61
2023-03-29T05:59:59.831Z,978.71
2023-03-29T06:00:59.980Z,978.65
2023-03-29T06:01:59.860Z,978.58
2023-03-29T06:03:10.098Z,978.61
2023-03-29T06:04:01.050Z,978.63
2023-03-29T06:04:59.755Z,978.61
2023-03-29T06:05:59.732Z,978.69
2023-03-29T06:06:59.722Z,978.67
2023-03-29T06:07:59.704Z,978.69
2023-03-29T06:08:59.685Z,978.70
2023-03-29T06:09:59.698Z,978.70
2023-03-29T06:11:01.167Z,978.66
2023-03-29T06:11:59.657Z,978.71
2023-03-29T06:12:59.644Z,978.75
2023-03-29T06:13:59.823Z,978.66
2023-03-29T06:14:59.635Z,978.69
2023-03-29T06:15:59.594Z,978.67
2023-03-29T06:16:59.718Z,978.73
2023-03-29T06:17:59.635Z,978.76
2023-03-29T06:18:59.551Z,978.72
2023-03-29T06:19:59.537Z,978.80
2023-03-29T06:20:59.659Z,978.79
2023-03-29T06:21:59.515Z,978.81
2023-03-29T06:22:59.500Z,978.81
2023-03-29T06:23:59.493Z,978.76
2023-03-29T06:24:59.478Z,978.67
2023-03-29T06:25:59.481Z,978.61
2023-03-29T06:26:59.445Z,978.65
2023-03-29T06:27:59.436Z,978.60
2023-03-29T06:28:59.426Z,978.62
2023-03-29T06:29:59.408Z,978.61
2023-03-29T06:30:59.466Z,978.71
2023-03-29T06:31:59.371Z,978.64
2023-03-29T06:32:59.404Z,978.63
2023-03-29T06:33:59.350Z,978.67
2023-03-29T06:34:59.334Z,978.63
2023-03-29T06:35:59.401Z,978.61
2023-03-29T06:36:59.310Z,978.56
2023-03-29T06:37:59.296Z,978.60
2023-03-29T06:38:59.286Z,978.60
2023-03-29T06:39:59.278Z,978.57
2023-03-29T06:40:59.332Z,978.56
2023-03-29T06:42:00.824Z,978.55
2023-03-29T06:42:59.237Z,978.54
2023-03-29T06:43:59.230Z,978.58
2023-03-29T06:44:59.207Z,978.51
2023-03-29T06:45:59.224Z,978.47
2023-03-29T06:46:59.185Z,978.45
2023-03-29T06:47:59.276Z,978.46
2023-03-29T06:48:59.147Z,978.47
2023-03-29T06:49:59.129Z,978.45
2023-03-29T06:50:59.127Z,978.46
2023-03-29T06:51:59.297Z,978.43
2023-03-29T06:52:59.096Z,978.46
2023-03-29T06:53:59.089Z,978.49
2023-03-29T06:54:59.067Z,978.49
2023-03-29T06:55:59.051Z,978.57
2023-03-29T06:56:59.075Z,978.54
2023-03-29T06:58:00.990Z,978.54
2023-03-29T06:58:59.009Z,978.49
2023-03-29T06:59:59.019Z,978.45
2023-03-29T07:00:59.008Z,978.43
2023-03-29T07:01:59.093Z,978.53
2023-03-29T07:02:59.067Z,978.53
2023-03-29T07:03:58.961Z,978.51
2023-03-29T07:04:58.924Z,978.51
2023-03-29T07:05:58.910Z,978.48
2023-03-29T07:06:58.904Z,978.56
2023-03-29T07:07:58.894Z,978.55
2023-03-29T07:08:58.878Z,978.56
2023-03-29T07:09:58.862Z,978.54
2023-03-29T07:10:58.861Z,978.49
2023-03-29T07:11:58.842Z,978.47
2023-03-29T07:12:58.966Z,978.47
2023-03-29T07:13:58.829Z,978.49
2023-03-29T07:14:58.802Z,978.49
2023-03-29T07:15:58.869Z,978.43
2023-03-29T07:16:58.773Z,978.40
2023-03-29T07:17:58.830Z,978.44
2023-03-29T07:18:58.876Z,978.49
2023-03-29T07:19:58.720Z,978.47
2023-03-29T07:20:59.242Z,978.37
2023-03-29T07:21:58.700Z,978.34
2023-03-29T07:22:58.677Z,978.33
2023-03-29T07:23:58.672Z,978.37
2023-03-29T07:24:58.653Z,978.39
2023-03-29T07:25:58.646Z,978.40
2023-03-29T07:27:04.062Z,978.38
2023-03-29T07:27:58.621Z,978.37
2023-03-29T07:28:58.599Z,978.35
2023-03-29T07:29:58.616Z,978.37
2023-03-29T07:30:58.589Z,978.48
2023-03-29T07:31:58.568Z,978.47
2023-03-29T07:32:58.626Z,978.55
2023-03-29T07:33:58.538Z,978.57
2023-03-29T07:34:58.518Z,978.57
2023-03-29T07:35:58.517Z,978.54
2023-03-29T07:36:58.488Z,978.65
2023-03-29T07:37:58.475Z,978.51
2023-03-29T07:38:58.463Z,978.58
2023-03-29T07:39:58.448Z,978.60
2023-03-29T07:40:58.430Z,978.59
2023-03-29T07:41:58.427Z,978.65
2023-03-29T07:42:58.409Z,978.60
2023-03-29T07:43:58.398Z,978.67
2023-03-29T07:44:58.385Z,978.65
2023-03-29T07:45:58.741Z,978.67
2023-03-29T07:46:58.383Z,978.65
2023-03-29T07:47:58.691Z,978.65
2023-03-29T07:48:58.334Z,978.71
2023-03-29T07:49:58.304Z,978.71
2023-03-29T07:50:58.288Z,978.78
2023-03-29T07:51:58.290Z,978.73
2023-03-29T07:52:58.270Z,978.71
2023-03-29T07:53:58.269Z,978.73
2023-03-29T07:54:58.239Z,978.66
2023-03-29T07:55:58.228Z,978.72
2023-03-29T07:56:58.253Z,978.79
2023-03-29T07:57:58.200Z,978.81
2023-03-29T07:58:58.182Z,978.86
2023-03-29T07:59:58.175Z,978.76
2023-03-29T08:00:58.210Z,978.74
2023-03-29T08:01:58.164Z,978.81
2023-03-29T08:02:58.183Z,978.77
2023-03-29T08:03:58.226Z,978.85
2023-03-29T08:04:58.136Z,978.82
2023-03-29T08:05:58.088Z,978.82
2023-03-29T08:06:58.093Z,978.77
2023-03-29T08:07:58.078Z,978.79
2023-03-29T08:08:58.060Z,978.81
2023-03-29T08:09:58.040Z,978.75
2023-03-29T08:10:58.015Z,978.69
2023-03-29T08:11:58.005Z,978.74
2023-03-29T08:12:58.002Z,978.73
2023-03-29T08:13:57.981Z,978.74
2023-03-29T08:14:57.969Z,978.80
2023-03-29T08:15:57.959Z,978.72
2023-03-29T08:16:57.959Z,978.72
2023-03-29T08:17:57.982Z,978.72
2023-03-29T08:18:57.927Z,978.72
2023-03-29T08:19:57.902Z,978.73
2023-03-29T08:20:58.164Z,978.76
2023-03-29T08:21:57.880Z,978.80
2023-03-29T08:22:57.861Z,978.82
2023-03-29T08:23:57.851Z,978.80
2023-03-29T08:24:57.842Z,978.77
2023-03-29T08:25:57.828Z,978.80
2023-03-29T08:26:57.824Z,978.77
2023-03-29T08:27:57.791Z,978.82
2023-03-29T08:28:57.776Z,978.81
2023-03-29T08:29:57.767Z,978.93
2023-03-29T08:30:57.825Z,978.80
2023-03-29T08:31:57.742Z,978.82
2023-03-29T08:32:57.744Z,978.82
2023-03-29T08:33:57.753Z,978.80
2023-03-29T08:34:57.719Z,978.83
2023-03-29T08:35:57.726Z,978.89
2023-03-29T08:36:57.667Z,978.83
2023-03-29T08:37:57.658Z,978.82
2023-03-29T08:38:57.662Z,978.85
2023-03-29T08:39:57.635Z,978.85
2023-03-29T08:40:57.618Z,978.80
2023-03-29T08:41:57.606Z,978.83
2023-03-29T08:42:57.592Z,978.75
2023-03-29T08:43:57.581Z,978.85
2023-03-29T08:44:57.573Z,978.80
2023-03-29T08:45:57.577Z,978.78
2023-03-29T08:46:57.597Z,978.78
2023-03-29T08:47:57.599Z,978.76
2023-03-29T08:48:57.566Z,978.79
2023-03-29T08:49:57.520Z,978.75
2023-03-29T08:50:57.554Z,978.73
2023-03-29T08:51:57.470Z,978.73
2023-03-29T08:52:57.459Z,978.68
2023-03-29T08:53:57.447Z,978.54
2023-03-29T08:54:57.439Z,978.61
2023-03-29T08:55:57.429Z,978.66
2023-03-29T08:56:57.408Z,978.62
2023-03-29T08:57:57.385Z,978.62
2023-03-29T08:58:57.374Z,978.60
2023-03-29T08:59:57.369Z,978.61
2023-03-29T09:00:57.356Z,978.55
2023-03-29T09:01:57.426Z,978.61
2023-03-29T09:02:57.495Z,978.58
2023-03-29T09:03:57.406Z,978.57
2023-03-29T09:04:57.305Z,978.64
2023-03-29T09:05:57.302Z,978.66
2023-03-29T09:06:57.267Z,978.64
2023-03-29T09:07:57.253Z,978.60
2023-03-29T09:08:57.245Z,978.60
2023-03-29T09:09:57.255Z,978.62
2023-03-29T09:10:57.212Z,978.64
2023-03-29T09:11:57.193Z,978.64
2023-03-29T09:12:57.209Z,978.57
2023-03-29T09:13:57.167Z,978.61
2023-03-29T09:14:57.150Z,978.53
2023-03-29T09:15:57.192Z,978.54
2023-03-29T09:16:57.124Z,978.54
2023-03-29T09:17:57.143Z,978.53
2023-03-29T09:18:57.098Z,978.56
2023-03-29T09:19:57.083Z,978.65
2023-03-29T09:20:57.082Z,978.57
2023-03-29T09:21:57.079Z,978.53
2023-03-29T09:22:57.068Z,978.50
2023-03-29T09:23:57.032Z,978.56
2023-03-29T09:24:57.012Z,978.47
2023-03-29T09:25:57.005Z,978.42
2023-03-29T09:26:56.991Z,978.42
2023-03-29T09:27:56.972Z,978.40
2023-03-29T09:28:56.958Z,978.32
2023-03-29T09:29:56.944Z,978.29
2023-03-29T09:30:56.932Z,978.27
2023-03-29T09:31:57.063Z,978.32
2023-03-29T09:32:56.990Z,978.26
2023-03-29T09:33:56.892Z,978.31
2023-03-29T09:34:56.876Z,978.25
2023-03-29T09:35:56.882Z,978.25
2023-03-29T09:36:56.865Z,978.25
2023-03-29T09:37:56.856Z,978.28
2023-03-29T09:38:56.823Z,978.24
2023-03-29T09:39:57.008Z,978.24
2023-03-29T09:40:56.788Z,978.29
2023-03-29T09:41:56.776Z,978.15
2023-03-29T09:42:56.783Z,978.14
2023-03-29T09:43:56.759Z,978.16
2023-03-29T09:44:56.742Z,978.23
2023-03-29T09:45:56.778Z,978.15
2023-03-29T09:46:56.717Z,977.98
2023-03-29T09:47:56.790Z,978.02
2023-03-29T09:48:56.693Z,977.99
2023-03-29T09:49:56.673Z,977.94
2023-03-29T09:50:56.672Z,977.97
2023-03-29T09:51:56.640Z,978.00
2023-03-29T09:52:56.636Z,978.13
2023-03-29T09:53:56.636Z,977.99
2023-03-29T09:54:56.602Z,977.98
2023-03-29T09:55:56.588Z,977.92
2023-03-29T09:56:56.609Z,977.90
2023-03-29T09:57:56.560Z,977.82
2023-03-29T09:58:56.545Z,977.85
2023-03-29T09:59:56.551Z,977.89
2023-03-29T10:00:56.537Z,977.85
2023-03-29T10:01:56.529Z,977.90
2023-03-29T10:02:56.539Z,977.77
2023-03-29T10:03:56.503Z,977.76
2023-03-29T10:04:56.469Z,977.69
2023-03-29T10:05:56.447Z,977.70
2023-03-29T10:06:56.439Z,977.82
2023-03-29T10:07:56.436Z,977.72
2023-03-29T10:08:56.426Z,977.72
2023-03-29T10:09:56.453Z,977.70
2023-03-29T10:10:56.394Z,977.70
2023-03-29T10:11:56.375Z,977.70
2023-03-29T10:12:56.362Z,977.65
2023-03-29T10:13:56.346Z,977.66
2023-03-29T10:14:56.332Z,977.65
2023-03-29T10:15:56.330Z,977.64
2023-03-29T10:16:56.576Z,977.61
2023-03-29T10:17:56.351Z,977.51
2023-03-29T10:18:56.283Z,977.61
2023-03-29T10:19:56.265Z,977.72
2023-03-29T10:20:56.252Z,977.61
2023-03-29T10:21:56.243Z,977.56
2023-03-29T10:22:56.240Z,977.53
2023-03-29T10:23:56.226Z,977.55
2023-03-29T10:24:56.219Z,977.54
2023-03-29T10:25:56.227Z,977.51
2023-03-29T10:26:56.199Z,977.42
2023-03-29T10:27:56.170Z,977.44
2023-03-29T10:28:56.157Z,977.39
2023-03-29T10:29:56.145Z,977.36
2023-03-29T10:30:56.126Z,977.43
2023-03-29T10:31:56.412Z,977.40
2023-03-29T10:32:56.165Z,977.33
2023-03-29T10:33:56.088Z,977.26
2023-03-29T10:34:56.072Z,977.34
2023-03-29T10:35:56.074Z,977.37
2023-03-29T10:36:56.048Z,977.32
2023-03-29T10:37:56.233Z,977.34
2023-03-29T10:38:56.031Z,977.26
2023-03-29T10:39:56.008Z,977.34
2023-03-29T10:40:56.000Z,977.30
2023-03-29T10:41:56.008Z,977.33
2023-03-29T10:42:55.999Z,977.36
2023-03-29T10:43:55.949Z,977.30
2023-03-29T10:44:55.970Z,977.26
2023-03-29T10:45:56.032Z,977.30
2023-03-29T10:46:55.918Z,977.28
2023-03-29T10:47:55.924Z,977.28
2023-03-29T10:48:55.898Z,977.30
2023-03-29T10:49:56.959Z,977.26
2023-03-29T10:50:55.870Z,977.26
2023-03-29T10:51:55.853Z,977.38
2023-03-29T10:52:55.835Z,977.30
2023-03-29T10:53:55.817Z,977.34
2023-03-29T10:54:55.821Z,977.39
2023-03-29T10:55:55.790Z,977.32
2023-03-29T10:56:55.796Z,977.35
2023-03-29T10:57:55.803Z,977.35
2023-03-29T10:58:55.749Z,977.31
2023-03-29T10:59:55.832Z,977.31
2023-03-29T11:00:55.749Z,977.33
2023-03-29T11:01:55.797Z,977.33
2023-03-29T11:02:55.790Z,977.27
2023-03-29T11:03:55.941Z,977.23
2023-03-29T11:04:55.674Z,977.34
2023-03-29T11:05:55.679Z,977.22
2023-03-29T11:06:55.661Z,977.35
2023-03-29T11:07:55.636Z,977.36
2023-03-29T11:08:55.689Z,977.38
2023-03-29T11:09:55.615Z,977.32
2023-03-29T11:10:55.598Z,977.45
2023-03-29T11:12:01.274Z,977.42
2023-03-29T11:12:56.590Z,977.41
2023-03-29T11:13:57.043Z,977.34
2023-03-29T11:14:55.566Z,977.37
2023-03-29T11:15:55.604Z,977.35
2023-03-29T11:16:55.534Z,977.34
2023-03-29T11:17:55.556Z,977.30
2023-03-29T11:18:55.506Z,977.34
2023-03-29T11:19:55.523Z,977.28
2023-03-29T11:20:55.482Z,977.30
2023-03-29T11:21:55.491Z,977.31
2023-03-29T11:22:55.440Z,977.32
2023-03-29T11:23:55.439Z,977.33
2023-03-29T11:24:55.413Z,977.34
2023-03-29T11:25:55.388Z,977.30
2023-03-29T11:26:55.396Z,977.36
2023-03-29T11:27:55.377Z,977.34
2023-03-29T11:28:55.359Z,977.38
2023-03-29T11:29:55.350Z,977.46
2023-03-29T11:30:55.421Z,977.48
2023-03-29T11:31:55.388Z,977.40
2023-03-29T11:32:55.360Z,977.37
2023-03-29T11:33:55.282Z,977.53
2023-03-29T11:34:55.281Z,977.52
2023-03-29T11:35:55.321Z,977.43
2023-03-29T11:36:55.253Z,977.45
2023-03-29T11:37:55.250Z,977.41
2023-03-29T11:38:55.310Z,977.43
2023-03-29T11:39:55.199Z,977.45
2023-03-29T11:40:55.200Z,977.60
2023-03-29T11:41:55.170Z,977.63
2023-03-29T11:42:55.162Z,977.64
2023-03-29T11:43:55.220Z,977.63
2023-03-29T11:44:55.244Z,977.57
2023-03-29T11:45:55.133Z,977.65
2023-03-29T11:46:55.660Z,977.58
2023-03-29T11:47:55.121Z,977.58
2023-03-29T11:48:55.079Z,977.51
2023-03-29T11:49:55.073Z,977.48
2023-03-29T11:50:55.059Z,977.50
2023-03-29T11:51:55.035Z,977.42
2023-03-29T11:52:55.031Z,977.39
2023-03-29T11:53:55.207Z,977.43
2023-03-29T11:54:54.989Z,977.50
2023-03-29T11:55:55.018Z,977.46
2023-03-29T11:56:54.993Z,977.46
2023-03-29T11:57:54.949Z,977.44
2023-03-29T11:58:55.041Z,977.43
2023-03-29T11:59:54.930Z,977.42
2023-03-29T12:00:54.915Z,977.37
2023-03-29T12:01:54.974Z,977.31
2023-03-29T12:02:54.970Z,977.27
2023-03-29T12:03:55.099Z,977.30
2023-03-29T12:04:54.857Z,977.34
2023-03-29T12:05:54.848Z,977.21
2023-03-29T12:06:54.842Z,977.25
2023-03-29T12:07:54.828Z,977.24
2023-03-29T12:08:54.820Z,977.30
2023-03-29T12:09:54.798Z,977.18
2023-03-29T12:10:54.788Z,977.27
2023-03-29T12:11:54.760Z,977.25
2023-03-29T12:12:54.758Z,977.23
2023-03-29T12:13:54.734Z,977.32
2023-03-29T12:14:54.725Z,977.29
2023-03-29T12:15:54.712Z,977.36
2023-03-29T12:16:54.747Z,977.34
2023-03-29T12:17:54.760Z,977.39
2023-03-29T12:18:54.681Z,977.41
2023-03-29T12:19:54.653Z,977.37
2023-03-29T12:20:54.643Z,977.31
2023-03-29T12:21:54.642Z,977.39
2023-03-29T12:22:54.618Z,977.34
2023-03-29T12:23:54.601Z,977.39
2023-03-29T12:24:54.596Z,977.34
2023-03-29T12:25:54.588Z,977.29
2023-03-29T12:26:54.560Z,977.33
2023-03-29T12:27:54.546Z,977.32